Time,TemperatureF,DewpointF,PressureIn,WindDirection,WindDirectionDegrees,WindSpeedMPH,WindSpeedGustMPH,Humidity,HourlyPrecipIn,Conditions,Clouds,dailyrainin,SoftwareType,DateUTC
2013-05-24 00:06:00,68.7,68.0,29.84,SSE,150,0.0,1.0,96,0.00,,,0.00,weatherlink.com 1.10,2013-05-24 04:06:00,
2013-05-24 00:21:00,68.3,67.0,29.86,NW,316,2.0,4.0,95,0.00,,,0.00,weatherlink.com 1.10,2013-05-24 04:21:00,
2013-05-24 00:36:00,67.2,65.0,29.84,NNW,330,0.0,2.0,93,0.07,,,0.07,weatherlink.com 1.10,2013-05-24 04:36:00,
2013-05-24 00:51:00,66.4,65.0,29.84,NNW,328,0.0,1.0,95,0.07,,,0.07,weatherlink.com 1.10,2013-05-24 04:51:00,
2013-05-24 01:06:00,65.7,64.0,29.84,NNW,328,0.0,0.0,95,0.07,,,0.07,weatherlink.com 1.10,2013-05-24 05:06:00,
2013-05-24 01:21:00,64.7,63.0,29.84,NNW,329,0.0,1.0,95,0.07,,,0.07,weatherlink.com 1.10,2013-05-24 05:21:00,
2013-05-24 01:36:00,64.1,63.0,29.82,NNW,329,0.0,0.0,96,0.00,,,0.07,weatherlink.com 1.10,2013-05-24 05:36:00,
2013-05-24 01:51:00,63.7,63.0,29.82,NNW,328,0.0,1.0,96,0.00,,,0.07,weatherlink.com 1.10,2013-05-24 05:51:00,
2013-05-24 02:06:00,63.8,63.0,29.81,NNW,328,0.0,0.0,97,0.00,,,0.07,weatherlink.com 1.10,2013-05-24 06:06:00,
2013-05-24 02:22:00,63.3,63.0,29.81,NNW,329,0.0,0.0,97,0.00,,,0.07,weatherlink.com 1.10,2013-05-24 06:22:00,
2013-05-24 02:36:00,62.9,62.0,29.80,NNW,329,0.0,0.0,97,0.00,,,0.07,weatherlink.com 1.10,2013-05-24 06:36:00,
2013-05-24 02:51:00,63.0,62.0,29.81,NNW,329,0.0,0.0,97,0.00,,,0.07,weatherlink.com 1.10,2013-05-24 06:51:00,
2013-05-24 03:06:00,63.3,63.0,29.82,NNW,328,0.0,1.0,97,0.01,,,0.08,weatherlink.com 1.10,2013-05-24 07:06:00,
2013-05-24 03:21:00,63.4,63.0,29.80,NNW,329,0.0,0.0,97,0.01,,,0.08,weatherlink.com 1.10,2013-05-24 07:21:00,
2013-05-24 03:36:00,63.3,63.0,29.80,NNW,329,0.0,0.0,97,0.01,,,0.08,weatherlink.com 1.10,2013-05-24 07:36:00,
2013-05-24 03:51:00,63.3,63.0,29.80,NNW,329,0.0,0.0,97,0.01,,,0.08,weatherlink.com 1.10,2013-05-24 07:51:00,
2013-05-24 04:06:00,63.3,63.0,29.80,NNW,329,0.0,0.0,97,0.00,,,0.08,weatherlink.com 1.10,2013-05-24 08:06:00,
2013-05-24 04:21:00,63.1,62.0,29.81,NNW,329,0.0,0.0,97,0.00,,,0.08,weatherlink.com 1.10,2013-05-24 08:21:00,
2013-05-24 04:36:00,63.3,63.0,29.81,NNW,329,0.0,0.0,98,0.00,,,0.08,weatherlink.com 1.10,2013-05-24 08:36:00,
2013-05-24 04:51:00,63.3,63.0,29.81,NNW,329,0.0,0.0,98,0.00,,,0.08,weatherlink.com 1.10,2013-05-24 08:51:00,
2013-05-24 05:06:00,63.3,63.0,29.81,NNW,329,0.0,0.0,98,0.00,,,0.08,weatherlink.com 1.10,2013-05-24 09:06:00,
2013-05-24 05:21:00,63.1,63.0,29.81,NNW,328,0.0,0.0,98,0.00,,,0.08,weatherlink.com 1.10,2013-05-24 09:21:00,
2013-05-24 05:36:00,62.8,62.0,29.81,NNW,329,0.0,1.0,97,0.00,,,0.08,weatherlink.com 1.10,2013-05-24 09:36:00,
2013-05-24 05:52:00,62.6,62.0,29.82,NNW,329,0.0,0.0,98,0.00,,,0.08,weatherlink.com 1.10,2013-05-24 09:52:00,
2013-05-24 06:06:00,62.5,62.0,29.82,NNW,329,0.0,0.0,98,0.00,,,0.08,weatherlink.com 1.10,2013-05-24 10:06:00,
2013-05-24 06:21:00,62.3,62.0,29.83,NNW,328,0.0,0.0,98,0.00,,,0.08,weatherlink.com 1.10,2013-05-24 10:21:00,
2013-05-24 06:36:00,62.4,62.0,29.84,NNW,329,0.0,0.0,98,0.00,,,0.08,weatherlink.com 1.10,2013-05-24 10:36:00,
2013-05-24 06:51:00,62.5,62.0,29.85,NNW,329,0.0,1.0,98,0.00,,,0.08,weatherlink.com 1.10,2013-05-24 10:51:00,
2013-05-24 07:06:00,62.5,62.0,29.85,NNW,329,0.0,1.0,98,0.00,,,0.08,weatherlink.com 1.10,2013-05-24 11:06:00,
2013-05-24 07:21:00,62.4,62.0,29.85,NNW,328,1.0,1.0,98,0.00,,,0.08,weatherlink.com 1.10,2013-05-24 11:21:00,
2013-05-24 07:36:00,62.7,62.0,29.85,NW,318,1.0,1.0,98,0.00,,,0.08,weatherlink.com 1.10,2013-05-24 11:36:00,
2013-05-24 07:51:00,63.0,62.0,29.85,WNW,291,0.0,2.0,97,0.00,,,0.08,weatherlink.com 1.10,2013-05-24 11:51:00,
2013-05-24 08:06:00,63.0,62.0,29.86,WNW,296,0.0,0.0,97,0.00,,,0.08,weatherlink.com 1.10,2013-05-24 12:06:00,
2013-05-24 08:21:00,63.4,63.0,29.86,NW,308,0.0,2.0,97,0.00,,,0.08,weatherlink.com 1.10,2013-05-24 12:21:00,
2013-05-24 08:36:00,63.9,63.0,29.87,WNW,288,0.0,0.0,97,0.00,,,0.08,weatherlink.com 1.10,2013-05-24 12:36:00,
2013-05-24 08:52:00,64.0,63.0,29.87,WNW,295,0.0,0.0,95,0.00,,,0.08,weatherlink.com 1.10,2013-05-24 12:52:00,
2013-05-24 09:07:00,63.8,62.0,29.88,NW,307,0.0,1.0,95,0.00,,,0.08,weatherlink.com 1.10,2013-05-24 13:07:00,
2013-05-24 09:22:00,64.3,63.0,29.89,NW,311,0.0,2.0,94,0.00,,,0.08,weatherlink.com 1.10,2013-05-24 13:22:00,
2013-05-24 09:37:00,65.0,62.0,29.89,NW,321,0.0,2.0,90,0.00,,,0.08,weatherlink.com 1.10,2013-05-24 13:37:00,
2013-05-24 09:52:00,68.2,65.0,29.90,NW,319,1.0,3.0,88,0.00,,,0.08,weatherlink.com 1.10,2013-05-24 13:52:00,
2013-05-24 10:07:00,70.4,64.0,29.90,ESE,112,2.0,3.0,81,0.00,,,0.08,weatherlink.com 1.10,2013-05-24 14:07:00,
2013-05-24 10:22:00,71.0,63.0,29.91,NW,323,2.0,6.0,75,0.00,,,0.08,weatherlink.com 1.10,2013-05-24 14:22:00,
2013-05-24 10:37:00,69.7,61.0,29.92,NW,316,1.0,3.0,75,0.00,,,0.08,weatherlink.com 1.10,2013-05-24 14:37:00,
2013-05-24 10:52:00,69.7,62.0,29.93,WSW,257,2.0,3.0,76,0.00,,,0.08,weatherlink.com 1.10,2013-05-24 14:52:00,
2013-05-24 11:07:00,70.1,61.0,29.93,NW,323,2.0,7.0,74,0.00,,,0.08,weatherlink.com 1.10,2013-05-24 15:07:00,
2013-05-24 11:22:00,70.1,61.0,29.94,WNW,303,3.0,6.0,74,0.00,,,0.08,weatherlink.com 1.10,2013-05-24 15:22:00,
2013-05-24 11:37:00,69.2,61.0,29.95,South,169,1.0,6.0,76,0.00,,,0.08,weatherlink.com 1.10,2013-05-24 15:37:00,
2013-05-24 11:52:00,70.9,61.0,29.95,West,260,2.0,7.0,72,0.00,,,0.08,weatherlink.com 1.10,2013-05-24 15:52:00,
2013-05-24 12:07:00,71.6,60.0,29.96,West,261,0.0,6.0,66,0.00,,,0.08,weatherlink.com 1.10,2013-05-24 16:07:00,
2013-05-24 12:22:00,70.4,58.0,29.96,SW,236,2.0,6.0,64,0.00,,,0.08,weatherlink.com 1.10,2013-05-24 16:22:00,
2013-05-24 12:37:00,70.5,56.0,29.97,SE,129,1.0,10.0,61,0.00,,,0.08,weatherlink.com 1.10,2013-05-24 16:37:00,
2013-05-24 12:52:00,70.7,56.0,29.98,NNW,340,0.0,7.0,60,0.00,,,0.08,weatherlink.com 1.10,2013-05-24 16:52:00,
2013-05-24 13:07:00,70.4,55.0,29.97,WNW,295,1.0,8.0,59,0.00,,,0.08,weatherlink.com 1.10,2013-05-24 17:07:00,
2013-05-24 13:22:00,71.4,56.0,29.97,NNW,335,1.0,10.0,58,0.00,,,0.08,weatherlink.com 1.10,2013-05-24 17:22:00,
2013-05-24 13:37:00,72.4,57.0,29.98,WNW,295,0.0,5.0,58,0.00,,,0.08,weatherlink.com 1.10,2013-05-24 17:37:00,
2013-05-24 13:52:00,73.0,54.0,29.98,North,4,2.0,6.0,52,0.00,,,0.08,weatherlink.com 1.10,2013-05-24 17:52:00,
2013-05-24 14:07:00,73.3,53.0,29.98,NW,326,4.0,5.0,50,0.00,,,0.08,weatherlink.com 1.10,2013-05-24 18:07:00,
2013-05-24 14:22:00,72.6,52.0,29.99,ESE,103,1.0,7.0,49,0.00,,,0.08,weatherlink.com 1.10,2013-05-24 18:22:00,
2013-05-24 14:37:00,71.9,52.0,29.99,WNW,290,1.0,9.0,49,0.00,,,0.08,weatherlink.com 1.10,2013-05-24 18:37:00,
2013-05-24 14:52:00,72.2,51.0,30.00,NW,309,4.0,7.0,47,0.00,,,0.08,weatherlink.com 1.10,2013-05-24 18:52:00,
2013-05-24 15:07:00,71.4,50.0,30.00,West,266,4.0,7.0,47,0.00,,,0.08,weatherlink.com 1.10,2013-05-24 19:07:00,
2013-05-24 15:22:00,71.2,52.0,30.00,WSW,238,1.0,6.0,50,0.00,,,0.08,weatherlink.com 1.10,2013-05-24 19:22:00,
2013-05-24 15:37:00,71.5,50.0,30.01,SSE,162,3.0,8.0,47,0.00,,,0.08,weatherlink.com 1.10,2013-05-24 19:37:00,
2013-05-24 15:52:00,71.4,49.0,30.01,NW,321,2.0,8.0,45,0.00,,,0.08,weatherlink.com 1.10,2013-05-24 19:52:00,
2013-05-24 16:07:00,70.7,47.0,30.01,WNW,288,4.0,9.0,43,0.00,,,0.08,weatherlink.com 1.10,2013-05-24 20:07:00,
2013-05-24 16:22:00,71.6,49.0,30.02,West,266,0.0,7.0,45,0.00,,,0.08,weatherlink.com 1.10,2013-05-24 20:22:00,
2013-05-24 16:37:00,69.9,48.0,30.02,East,87,2.0,13.0,46,0.00,,,0.08,weatherlink.com 1.10,2013-05-24 20:37:00,
2013-05-24 16:53:00,68.3,46.0,30.03,NNE,12,0.0,8.0,45,0.00,,,0.08,weatherlink.com 1.10,2013-05-24 20:53:00,
2013-05-24 17:08:00,67.5,44.0,30.03,NW,304,3.0,8.0,43,0.00,,,0.08,weatherlink.com 1.10,2013-05-24 21:08:00,
2013-05-24 17:23:00,67.0,44.0,30.04,WSW,239,2.0,7.0,44,0.00,,,0.08,weatherlink.com 1.10,2013-05-24 21:23:00,
2013-05-24 17:38:00,66.8,45.0,30.04,WSW,253,5.0,10.0,45,0.00,,,0.08,weatherlink.com 1.10,2013-05-24 21:38:00,
2013-05-24 17:53:00,66.7,45.0,30.05,NW,308,3.0,7.0,45,0.00,,,0.08,weatherlink.com 1.10,2013-05-24 21:53:00,
2013-05-24 18:08:00,66.9,44.0,30.05,SSE,153,1.0,6.0,44,0.00,,,0.08,weatherlink.com 1.10,2013-05-24 22:08:00,
2013-05-24 18:23:00,65.8,42.0,30.06,SW,228,2.0,7.0,42,0.00,,,0.08,weatherlink.com 1.10,2013-05-24 22:23:00,
2013-05-24 18:38:00,64.6,43.0,30.06,WNW,300,2.0,8.0,45,0.00,,,0.08,weatherlink.com 1.10,2013-05-24 22:38:00,
2013-05-24 18:53:00,63.8,41.0,30.07,SSW,201,1.0,5.0,44,0.00,,,0.08,weatherlink.com 1.10,2013-05-24 22:53:00,
2013-05-24 19:08:00,63.0,42.0,30.07,SW,217,2.0,3.0,47,0.00,,,0.08,weatherlink.com 1.10,2013-05-24 23:08:00,
2013-05-24 19:23:00,62.2,43.0,30.08,West,266,1.0,2.0,49,0.00,,,0.08,weatherlink.com 1.10,2013-05-24 23:23:00,
2013-05-24 19:38:00,61.7,43.0,30.09,NW,307,2.0,3.0,50,0.00,,,0.08,weatherlink.com 1.10,2013-05-24 23:38:00,
2013-05-24 19:53:00,61.3,41.0,30.09,NNW,328,0.0,4.0,48,0.00,,,0.08,weatherlink.com 1.10,2013-05-24 23:53:00,
2013-05-24 20:08:00,60.4,42.0,30.10,North,10,0.0,1.0,51,0.00,,,0.08,weatherlink.com 1.10,2013-05-25 00:08:00,
2013-05-24 20:23:00,58.7,43.0,30.10,West,281,0.0,1.0,57,0.00,,,0.08,weatherlink.com 1.10,2013-05-25 00:23:00,
2013-05-24 20:38:00,57.2,43.0,30.11,West,281,0.0,0.0,59,0.00,,,0.08,weatherlink.com 1.10,2013-05-25 00:38:00,
2013-05-24 20:53:00,55.8,44.0,30.12,WNW,290,0.0,0.0,65,0.00,,,0.08,weatherlink.com 1.10,2013-05-25 00:53:00,
2013-05-24 21:08:00,54.6,43.0,30.12,WNW,288,0.0,0.0,66,0.00,,,0.08,weatherlink.com 1.10,2013-05-25 01:08:00,
2013-05-24 21:23:00,53.9,44.0,30.13,WNW,288,0.0,0.0,69,0.00,,,0.08,weatherlink.com 1.10,2013-05-25 01:23:00,
2013-05-24 21:38:00,53.1,44.0,30.14,WNW,288,0.0,0.0,71,0.00,,,0.08,weatherlink.com 1.10,2013-05-25 01:38:00,
2013-05-24 21:53:00,52.3,44.0,30.14,WNW,288,0.0,0.0,72,0.00,,,0.08,weatherlink.com 1.10,2013-05-25 01:53:00,
2013-05-24 22:08:00,51.6,44.0,30.15,WNW,290,0.0,0.0,74,0.00,,,0.08,weatherlink.com 1.10,2013-05-25 02:08:00,
2013-05-24 22:23:00,51.0,44.0,30.16,WNW,290,0.0,0.0,77,0.00,,,0.08,weatherlink.com 1.10,2013-05-25 02:23:00,
2013-05-24 22:39:00,50.6,44.0,30.16,WNW,302,0.0,1.0,77,0.00,,,0.08,weatherlink.com 1.10,2013-05-25 02:39:00,
2013-05-24 23:09:00,51.5,42.0,30.18,South,184,0.0,0.0,71,0.00,,,0.08,weatherlink.com 1.10,2013-05-25 03:09:00,
2013-05-24 23:24:00,51.2,42.0,30.18,South,179,0.0,1.0,71,0.00,,,0.08,weatherlink.com 1.10,2013-05-25 03:24:00,
2013-05-24 23:39:00,51.2,41.0,30.18,SE,125,0.0,3.0,69,0.00,,,0.08,weatherlink.com 1.10,2013-05-25 03:39:00,
2013-05-24 23:54:00,51.3,42.0,30.18,SSE,152,0.0,1.0,70,0.00,,,0.08,weatherlink.com 1.10,2013-05-25 03:54:00,